sensor_id;sensor_type;location;lat;lon;timestamp;temperature;humidity
41471;DHT22;27211;51.220;5.308;2023-09-08T00:00:03;20.70;99.90
41471;DHT22;27211;51.220;5.308;2023-09-08T00:02:49;20.60;99.90
41471;DHT22;27211;51.220;5.308;2023-09-08T00:05:15;20.60;99.90
41471;DHT22;27211;51.220;5.308;2023-09-08T00:07:42;20.60;99.90
41471;DHT22;27211;51.220;5.308;2023-09-08T00:10:08;20.60;99.90
41471;DHT22;27211;51.220;5.308;2023-09-08T00:12:45;20.60;99.90
41471;DHT22;27211;51.220;5.308;2023-09-08T00:15:12;20.70;99.90
41471;DHT22;27211;51.220;5.308;2023-09-08T00:17:48;20.60;99.90
41471;DHT22;27211;51.220;5.308;2023-09-08T00:20:14;20.60;99.90
41471;DHT22;27211;51.220;5.308;2023-09-08T00:22:41;20.50;99.90
41471;DHT22;27211;51.220;5.308;2023-09-08T00:25:07;20.50;99.90
41471;DHT22;27211;51.220;5.308;2023-09-08T00:27:34;20.50;99.90
41471;DHT22;27211;51.220;5.308;2023-09-08T00:33:02;20.40;99.90
41471;DHT22;27211;51.220;5.308;2023-09-08T00:35:38;20.40;99.90
41471;DHT22;27211;51.220;5.308;2023-09-08T00:38:05;20.40;99.90
41471;DHT22;27211;51.220;5.308;2023-09-08T00:40:31;20.40;99.90
41471;DHT22;27211;51.220;5.308;2023-09-08T00:43:04;20.30;99.90
41471;DHT22;27211;51.220;5.308;2023-09-08T00:45:30;20.30;99.90
41471;DHT22;27211;51.220;5.308;2023-09-08T00:47:57;20.20;99.90
41471;DHT22;27211;51.220;5.308;2023-09-08T00:50:23;20.10;99.90
41471;DHT22;27211;51.220;5.308;2023-09-08T00:52:50;20.20;99.90
41471;DHT22;27211;51.220;5.308;2023-09-08T00:55:16;20.10;99.90
41471;DHT22;27211;51.220;5.308;2023-09-08T00:57:43;20.10;99.90
41471;DHT22;27211;51.220;5.308;2023-09-08T01:00:10;20.00;99.90
41471;DHT22;27211;51.220;5.308;2023-09-08T01:02:39;20.10;99.90
41471;DHT22;27211;51.220;5.308;2023-09-08T01:05:06;20.10;99.90
41471;DHT22;27211;51.220;5.308;2023-09-08T01:07:32;19.90;99.90
41471;DHT22;27211;51.220;5.308;2023-09-08T01:09:59;19.80;99.90
41471;DHT22;27211;51.220;5.308;2023-09-08T01:12:34;19.70;99.90
41471;DHT22;27211;51.220;5.308;2023-09-08T01:15:03;19.70;99.90
41471;DHT22;27211;51.220;5.308;2023-09-08T01:17:32;19.60;99.90
41471;DHT22;27211;51.220;5.308;2023-09-08T01:20:00;19.60;99.90
41471;DHT22;27211;51.220;5.308;2023-09-08T01:27:58;19.50;99.90
41471;DHT22;27211;51.220;5.308;2023-09-08T01:30:39;19.50;99.90
41471;DHT22;27211;51.220;5.308;2023-09-08T01:33:06;19.60;99.90
41471;DHT22;27211;51.220;5.308;2023-09-08T01:35:33;19.50;99.90
41471;DHT22;27211;51.220;5.308;2023-09-08T01:38:02;19.50;99.90
41471;DHT22;27211;51.220;5.308;2023-09-08T01:40:29;19.50;99.90
41471;DHT22;27211;51.220;5.308;2023-09-08T01:43:05;19.40;99.90
41471;DHT22;27211;51.220;5.308;2023-09-08T01:45:31;19.40;99.90
41471;DHT22;27211;51.220;5.308;2023-09-08T01:48:17;19.40;99.90
41471;DHT22;27211;51.220;5.308;2023-09-08T01:50:43;19.40;99.90
41471;DHT22;27211;51.220;5.308;2023-09-08T01:53:10;19.50;99.90
41471;DHT22;27211;51.220;5.308;2023-09-08T01:55:36;19.40;99.90
41471;DHT22;27211;51.220;5.308;2023-09-08T01:58:03;19.40;99.90
41471;DHT22;27211;51.220;5.308;2023-09-08T02:00:29;19.30;99.90
41471;DHT22;27211;51.220;5.308;2023-09-08T02:02:56;19.30;99.90
41471;DHT22;27211;51.220;5.308;2023-09-08T02:05:22;19.30;99.90
41471;DHT22;27211;51.220;5.308;2023-09-08T02:07:50;19.40;99.90
41471;DHT22;27211;51.220;5.308;2023-09-08T02:10:17;19.30;99.90
41471;DHT22;27211;51.220;5.308;2023-09-08T02:12:43;19.30;99.90
41471;DHT22;27211;51.220;5.308;2023-09-08T02:15:13;19.20;99.90
41471;DHT22;27211;51.220;5.308;2023-09-08T02:17:42;19.20;99.90
41471;DHT22;27211;51.220;5.308;2023-09-08T02:20:08;19.20;99.90
41471;DHT22;27211;51.220;5.308;2023-09-08T02:22:35;19.10;99.90
41471;DHT22;27211;51.220;5.308;2023-09-08T02:25:02;19.10;99.90
41471;DHT22;27211;51.220;5.308;2023-09-08T02:27:28;19.00;99.90
41471;DHT22;27211;51.220;5.308;2023-09-08T02:29:55;18.90;99.90
41471;DHT22;27211;51.220;5.308;2023-09-08T02:32:30;19.00;99.90
41471;DHT22;27211;51.220;5.308;2023-09-08T02:34:57;18.90;99.90
41471;DHT22;27211;51.220;5.308;2023-09-08T02:37:23;18.90;99.90
41471;DHT22;27211;51.220;5.308;2023-09-08T02:39:50;18.90;99.90
41471;DHT22;27211;51.220;5.308;2023-09-08T02:42:19;18.90;99.90
41471;DHT22;27211;51.220;5.308;2023-09-08T02:44:46;18.80;99.90
41471;DHT22;27211;51.220;5.308;2023-09-08T02:47:12;18.90;99.90
41471;DHT22;27211;51.220;5.308;2023-09-08T02:49:39;18.80;99.90
41471;DHT22;27211;51.220;5.308;2023-09-08T02:52:05;18.90;99.90
41471;DHT22;27211;51.220;5.308;2023-09-08T02:54:32;18.80;99.90
41471;DHT22;27211;51.220;5.308;2023-09-08T02:56:58;18.80;99.90
41471;DHT22;27211;51.220;5.308;2023-09-08T02:59:24;18.90;99.90
41471;DHT22;27211;51.220;5.308;2023-09-08T03:01:51;18.80;99.90
41471;DHT22;27211;51.220;5.308;2023-09-08T03:04:17;18.60;99.90
41471;DHT22;27211;51.220;5.308;2023-09-08T03:06:44;18.60;99.90
41471;DHT22;27211;51.220;5.308;2023-09-08T03:09:10;18.70;99.90
41471;DHT22;27211;51.220;5.308;2023-09-08T03:11:37;18.70;99.90
41471;DHT22;27211;51.220;5.308;2023-09-08T03:14:03;18.70;99.90
41471;DHT22;27211;51.220;5.308;2023-09-08T03:16:30;18.70;99.90
41471;DHT22;27211;51.220;5.308;2023-09-08T03:18:57;18.70;99.90
41471;DHT22;27211;51.220;5.308;2023-09-08T03:21:23;18.70;99.90
41471;DHT22;27211;51.220;5.308;2023-09-08T03:23:50;18.70;99.90
41471;DHT22;27211;51.220;5.308;2023-09-08T03:26:17;18.70;99.90
41471;DHT22;27211;51.220;5.308;2023-09-08T03:28:43;18.70;99.90
